createdAt,value
2019-03-23T00:00:43.285Z,6.90
2019-03-23T00:03:16.264Z,6.80
2019-03-23T00:05:49.905Z,6.80
2019-03-23T00:08:22.884Z,6.90
2019-03-23T00:10:55.985Z,6.90
2019-03-23T00:13:28.987Z,7.20
2019-03-23T00:16:01.868Z,7.10
2019-03-23T00:18:34.856Z,6.90
2019-03-23T00:21:07.945Z,6.90
2019-03-23T00:23:40.807Z,7.10
2019-03-23T00:26:13.973Z,7.00
2019-03-23T00:28:46.885Z,7.00
2019-03-23T00:31:19.844Z,7.00
2019-03-23T00:33:53.604Z,7.00
2019-03-23T00:36:26.564Z,7.10
2019-03-23T00:38:59.825Z,7.10
2019-03-23T00:41:33.184Z,7.10
2019-03-23T00:44:07.505Z,7.00
2019-03-23T00:46:41.204Z,6.90
2019-03-23T00:49:14.444Z,6.90
2019-03-23T00:51:47.786Z,7.00
2019-03-23T00:54:20.752Z,7.00
2019-03-23T00:56:53.624Z,6.90
2019-03-23T00:59:26.464Z,7.00
2019-03-23T01:01:59.524Z,7.20
2019-03-23T01:04:32.725Z,7.10
2019-03-23T01:07:05.664Z,7.20
2019-03-23T01:09:38.565Z,7.20
2019-03-23T01:12:11.804Z,7.20
2019-03-23T01:14:44.604Z,7.10
2019-03-23T01:17:17.644Z,7.20
2019-03-23T01:19:51.066Z,7.20
2019-03-23T01:22:24.052Z,7.30
2019-03-23T01:24:56.933Z,7.30
2019-03-23T01:27:29.785Z,7.20
2019-03-23T01:30:02.551Z,7.40
2019-03-23T01:32:35.505Z,7.30
2019-03-23T01:35:08.705Z,7.30
2019-03-23T01:37:41.690Z,7.00
2019-03-23T01:40:14.504Z,6.90
2019-03-23T01:42:47.524Z,7.00
2019-03-23T01:45:20.511Z,7.00
2019-03-23T01:47:53.465Z,7.00
2019-03-23T01:50:26.373Z,7.10
2019-03-23T01:52:59.224Z,7.00
2019-03-23T01:55:32.164Z,7.10
2019-03-23T01:58:05.084Z,7.10
2019-03-23T02:00:38.149Z,7.00
2019-03-23T02:03:11.286Z,7.00
2019-03-23T02:05:44.164Z,7.00
2019-03-23T02:08:17.264Z,6.90
2019-03-23T02:10:50.092Z,6.90
2019-03-23T02:13:23.384Z,6.80
2019-03-23T02:15:56.344Z,6.90
2019-03-23T02:18:29.605Z,6.90
2019-03-23T02:21:02.634Z,6.80
2019-03-23T02:23:36.007Z,6.60
2019-03-23T02:26:09.064Z,6.50
2019-03-23T02:28:42.105Z,6.30
2019-03-23T02:31:15.066Z,6.30
2019-03-23T02:33:47.906Z,6.40
2019-03-23T02:36:20.806Z,6.40
2019-03-23T02:38:54.106Z,6.40
2019-03-23T02:41:26.985Z,6.80
2019-03-23T02:44:00.305Z,7.20
2019-03-23T02:46:33.544Z,7.30
2019-03-23T02:49:06.552Z,7.10
2019-03-23T02:51:39.837Z,7.20
2019-03-23T02:54:13.054Z,7.00
2019-03-23T02:56:45.926Z,6.90
2019-03-23T02:59:19.006Z,6.90
2019-03-23T03:01:52.392Z,6.90
2019-03-23T03:04:25.285Z,6.60
2019-03-23T03:06:58.265Z,6.20
2019-03-23T03:09:31.544Z,6.20
2019-03-23T03:12:04.485Z,6.10
2019-03-23T03:14:37.465Z,6.20
2019-03-23T03:17:10.731Z,6.30
2019-03-23T03:19:43.652Z,6.50
2019-03-23T03:22:17.069Z,6.50
2019-03-23T03:24:49.946Z,6.70
2019-03-23T03:27:22.972Z,6.60
2019-03-23T03:29:56.464Z,6.50
2019-03-23T03:32:29.386Z,6.40
2019-03-23T03:35:02.357Z,6.30
2019-03-23T03:37:35.815Z,6.20
2019-03-23T03:40:08.695Z,6.00
2019-03-23T03:42:42.213Z,6.00
2019-03-23T03:45:15.207Z,6.00
2019-03-23T03:47:48.349Z,6.30
2019-03-23T03:50:21.376Z,6.20
2019-03-23T03:52:54.245Z,6.40
2019-03-23T03:55:27.293Z,6.30
2019-03-23T03:58:00.233Z,6.30
2019-03-23T04:00:33.045Z,6.40
2019-03-23T04:03:06.312Z,6.40
2019-03-23T04:05:39.233Z,6.40
2019-03-23T04:08:12.428Z,6.30
2019-03-23T04:10:45.468Z,6.10
2019-03-23T04:13:18.364Z,6.00
2019-03-23T04:15:51.324Z,6.50
2019-03-23T04:18:24.684Z,6.80
2019-03-23T04:20:57.567Z,6.80
2019-03-23T04:23:30.526Z,6.60
2019-03-23T04:26:03.328Z,6.50
2019-03-23T04:28:36.285Z,6.40
2019-03-23T04:31:09.365Z,6.50
2019-03-23T04:33:42.272Z,6.50
2019-03-23T04:36:15.306Z,6.50
2019-03-23T04:38:48.704Z,6.40
2019-03-23T04:41:21.649Z,6.40
2019-03-23T04:43:54.625Z,6.20
2019-03-23T04:46:27.625Z,6.60
2019-03-23T04:49:00.524Z,6.70
2019-03-23T04:51:33.946Z,6.60
2019-03-23T04:54:06.684Z,6.70
2019-03-23T04:56:40.646Z,6.80
2019-03-23T04:59:14.126Z,6.60
2019-03-23T05:01:46.965Z,6.60
2019-03-23T05:04:19.945Z,6.60
2019-03-23T05:06:52.989Z,6.30
2019-03-23T05:09:26.032Z,6.30
2019-03-23T05:11:59.365Z,6.20
2019-03-23T05:14:32.564Z,6.30
2019-03-23T05:17:05.885Z,6.20
2019-03-23T05:19:38.664Z,6.10
2019-03-23T05:22:11.427Z,6.20
2019-03-23T05:24:44.624Z,6.00
2019-03-23T05:27:17.824Z,5.90
2019-03-23T05:29:50.524Z,6.10
2019-03-23T05:32:23.340Z,6.10
2019-03-23T05:34:56.092Z,6.30
2019-03-23T05:37:29.207Z,6.50
2019-03-23T05:40:02.214Z,6.60
2019-03-23T05:42:35.169Z,6.70
2019-03-23T05:45:07.925Z,6.60
2019-03-23T05:47:40.885Z,6.40
2019-03-23T05:50:16.927Z,6.20
2019-03-23T05:52:49.825Z,6.10
2019-03-23T05:55:22.664Z,6.20
2019-03-23T05:57:55.805Z,6.20
2019-03-23T06:00:28.644Z,6.40
2019-03-23T06:03:01.765Z,6.40
2019-03-23T06:05:34.724Z,6.60
2019-03-23T06:08:07.724Z,6.70
2019-03-23T06:10:40.884Z,6.70
2019-03-23T06:13:14.765Z,6.70
2019-03-23T06:15:47.609Z,6.60
2019-03-23T06:18:20.965Z,6.70
2019-03-23T06:20:54.004Z,6.60
2019-03-23T06:23:26.944Z,6.50
2019-03-23T06:25:59.684Z,6.40
2019-03-23T06:28:32.746Z,6.50
2019-03-23T06:31:05.685Z,6.70
2019-03-23T06:33:40.300Z,6.80
2019-03-23T06:36:14.524Z,6.90
2019-03-23T06:38:47.505Z,6.90
2019-03-23T06:41:21.085Z,7.00
2019-03-23T06:43:54.002Z,7.00
2019-03-23T06:46:26.765Z,7.10
2019-03-23T06:49:00.123Z,7.20
2019-03-23T06:51:33.425Z,7.20
2019-03-23T06:54:11.505Z,7.20
2019-03-23T06:56:43.312Z,7.20
2019-03-23T06:59:16.365Z,7.20
2019-03-23T07:01:49.215Z,7.30
2019-03-23T07:04:22.264Z,7.60
2019-03-23T07:06:55.926Z,7.50
2019-03-23T07:09:29.284Z,7.40
2019-03-23T07:12:02.568Z,7.40
2019-03-23T07:14:35.547Z,7.50
2019-03-23T07:17:08.433Z,7.50
2019-03-23T07:19:41.307Z,7.50
2019-03-23T07:22:14.806Z,7.70
2019-03-23T07:24:47.725Z,7.80
2019-03-23T07:27:20.646Z,7.70
2019-03-23T07:29:54.296Z,7.80
2019-03-23T07:32:26.998Z,7.80
2019-03-23T07:35:00.279Z,7.80
2019-03-23T07:37:33.313Z,7.90
2019-03-23T07:40:07.007Z,7.80
2019-03-23T07:42:40.036Z,7.90
2019-03-23T07:45:13.066Z,7.90
2019-03-23T07:47:45.989Z,8.20
2019-03-23T07:50:20.444Z,8.30
2019-03-23T07:52:54.026Z,8.30
2019-03-23T07:55:27.264Z,8.40
2019-03-23T07:58:00.127Z,8.50
2019-03-23T08:00:33.304Z,8.50
2019-03-23T08:03:06.565Z,8.60
2019-03-23T08:05:48.724Z,8.60
2019-03-23T08:08:22.524Z,8.70
2019-03-23T08:11:02.286Z,8.60
2019-03-23T08:13:37.004Z,8.70
2019-03-23T08:16:10.289Z,8.80
2019-03-23T08:18:43.584Z,9.10
2019-03-23T08:21:18.445Z,9.30
2019-03-23T08:23:51.624Z,9.60
2019-03-23T08:26:24.774Z,9.70
2019-03-23T08:28:57.605Z,10.20
2019-03-23T08:31:30.964Z,10.50
2019-03-23T08:34:03.885Z,10.90
2019-03-23T08:36:36.886Z,11.30
2019-03-23T08:39:11.344Z,11.50
2019-03-23T08:41:44.289Z,11.80
2019-03-23T08:44:17.091Z,12.10
2019-03-23T08:46:50.257Z,12.30
2019-03-23T08:49:23.532Z,12.40
2019-03-23T08:51:56.651Z,12.50
2019-03-23T08:54:29.730Z,12.60
2019-03-23T08:57:02.910Z,12.80
2019-03-23T08:59:41.571Z,12.90
2019-03-23T09:02:11.990Z,13.10
2019-03-23T09:04:47.569Z,13.30
2019-03-23T09:07:20.969Z,13.80
2019-03-23T09:10:05.127Z,13.90
2019-03-23T09:12:43.548Z,14.00
2019-03-23T09:15:16.424Z,14.00
2019-03-23T09:17:50.004Z,14.20
2019-03-23T09:20:23.305Z,14.10
2019-03-23T09:23:02.415Z,14.30
2019-03-23T09:25:34.806Z,14.20
2019-03-23T09:28:07.604Z,14.70
2019-03-23T09:30:40.334Z,14.30
2019-03-23T09:33:13.208Z,14.50
2019-03-23T09:35:46.145Z,14.60
2019-03-23T09:38:19.124Z,14.50
2019-03-23T09:40:52.312Z,14.80
2019-03-23T09:43:25.588Z,14.90
2019-03-23T09:45:58.402Z,15.00
2019-03-23T09:48:31.516Z,15.40
2019-03-23T09:51:04.332Z,15.70
2019-03-23T09:53:37.348Z,15.40
2019-03-23T09:56:10.117Z,15.20
2019-03-23T09:58:43.085Z,15.20
2019-03-23T10:01:16.072Z,15.00
2019-03-23T10:03:49.264Z,15.10
2019-03-23T10:06:22.713Z,15.50
2019-03-23T10:08:55.612Z,15.70
2019-03-23T10:11:28.940Z,16.40
2019-03-23T10:14:03.210Z,16.80
2019-03-23T10:16:36.404Z,16.70
2019-03-23T10:19:09.405Z,16.40
2019-03-23T10:21:43.845Z,17.10
2019-03-23T10:24:16.965Z,17.30
2019-03-23T10:26:52.241Z,17.90
2019-03-23T10:29:25.490Z,16.90
2019-03-23T10:32:00.685Z,17.10
2019-03-23T10:34:34.264Z,16.90
2019-03-23T10:37:07.584Z,16.50
2019-03-23T10:39:40.666Z,16.80
2019-03-23T10:42:13.546Z,17.20
2019-03-23T10:44:46.536Z,17.60
2019-03-23T10:47:20.706Z,17.20
2019-03-23T10:49:53.944Z,17.00
2019-03-23T10:52:26.885Z,17.80
2019-03-23T10:54:59.844Z,16.60
2019-03-23T10:57:32.744Z,16.60
2019-03-23T11:00:05.825Z,16.90
2019-03-23T11:02:38.746Z,17.00
2019-03-23T11:05:11.773Z,17.90
2019-03-23T11:07:44.944Z,18.70
2019-03-23T11:10:17.945Z,18.40
2019-03-23T11:12:51.205Z,17.50
2019-03-23T11:15:24.105Z,16.90
2019-03-23T11:17:57.565Z,16.60
2019-03-23T11:20:30.825Z,17.40
2019-03-23T11:23:03.664Z,17.50
2019-03-23T11:25:36.512Z,17.50
2019-03-23T11:28:09.805Z,18.20
2019-03-23T11:30:42.672Z,18.50
2019-03-23T11:33:16.127Z,18.40
2019-03-23T11:35:57.493Z,18.20
2019-03-23T11:38:23.653Z,17.40
2019-03-23T11:40:56.712Z,17.90
2019-03-23T11:43:29.987Z,17.70
2019-03-23T11:46:02.746Z,17.00
2019-03-23T11:48:35.667Z,17.00
2019-03-23T11:51:08.505Z,17.60
2019-03-23T11:53:41.333Z,17.60
2019-03-23T11:56:14.244Z,17.40
2019-03-23T11:58:47.009Z,17.80
2019-03-23T12:01:20.618Z,17.90
2019-03-23T12:03:53.565Z,18.10
2019-03-23T12:06:27.170Z,18.50
2019-03-23T12:09:00.194Z,18.10
2019-03-23T12:11:33.246Z,18.30
2019-03-23T12:14:06.352Z,18.10
2019-03-23T12:16:39.547Z,18.30
2019-03-23T12:19:12.473Z,18.70
2019-03-23T12:21:47.484Z,19.10
2019-03-23T12:24:20.986Z,18.80
2019-03-23T12:26:53.965Z,19.00
2019-03-23T12:29:26.835Z,18.80
2019-03-23T12:31:59.844Z,18.70
2019-03-23T12:34:32.752Z,18.60
2019-03-23T12:37:05.667Z,18.60
2019-03-23T12:39:38.548Z,18.70
2019-03-23T12:42:11.524Z,18.70
2019-03-23T12:44:44.366Z,18.50
2019-03-23T12:47:17.938Z,18.70
2019-03-23T12:49:50.965Z,18.60
2019-03-23T12:52:24.006Z,18.20
2019-03-23T12:54:57.424Z,17.50
2019-03-23T12:57:30.355Z,17.50
2019-03-23T13:00:03.204Z,17.70
2019-03-23T13:02:36.964Z,18.40
2019-03-23T13:05:09.873Z,18.60
2019-03-23T13:07:43.392Z,18.70
2019-03-23T13:10:17.044Z,18.70
2019-03-23T13:12:50.372Z,18.80
2019-03-23T13:15:26.386Z,19.00
2019-03-23T13:17:59.924Z,19.30
2019-03-23T13:20:32.725Z,18.60
2019-03-23T13:23:05.784Z,18.90
2019-03-23T13:25:38.644Z,18.90
2019-03-23T13:28:11.727Z,18.90
2019-03-23T13:30:44.704Z,19.10
2019-03-23T13:33:17.632Z,18.90
2019-03-23T13:35:50.686Z,18.50
2019-03-23T13:38:23.925Z,18.40
2019-03-23T13:40:56.864Z,18.80
2019-03-23T13:43:29.764Z,18.40
2019-03-23T13:46:02.924Z,18.60
2019-03-23T13:48:36.124Z,18.50
2019-03-23T13:51:08.944Z,18.40
2019-03-23T13:53:42.004Z,19.10
2019-03-23T13:56:15.945Z,18.60
2019-03-23T13:58:49.024Z,18.20
2019-03-23T14:01:22.383Z,17.90
2019-03-23T14:03:55.323Z,18.20
2019-03-23T14:06:28.284Z,18.20
2019-03-23T14:09:01.524Z,18.10
2019-03-23T14:11:34.804Z,18.60
2019-03-23T14:14:07.664Z,18.40
2019-03-23T14:16:40.604Z,18.70
2019-03-23T14:19:13.924Z,19.30
2019-03-23T14:21:47.083Z,19.20
2019-03-23T14:24:20.105Z,18.00
2019-03-23T14:26:53.052Z,18.30
2019-03-23T14:29:26.623Z,18.50
2019-03-23T14:31:59.444Z,18.50
2019-03-23T14:34:32.904Z,18.40
2019-03-23T14:37:05.745Z,18.40
2019-03-23T14:39:38.803Z,18.50
2019-03-23T14:42:11.824Z,18.30
2019-03-23T14:44:45.024Z,18.70
2019-03-23T14:47:17.924Z,18.50
2019-03-23T14:49:51.284Z,18.40
2019-03-23T14:52:24.084Z,18.20
2019-03-23T14:54:56.984Z,18.10
2019-03-23T14:57:29.904Z,18.20
2019-03-23T15:00:02.766Z,17.90
2019-03-23T15:02:35.925Z,18.00
2019-03-23T15:05:08.998Z,18.30
2019-03-23T15:07:41.805Z,18.50
2019-03-23T15:10:15.024Z,18.50
2019-03-23T15:12:48.244Z,18.10
2019-03-23T15:15:21.504Z,18.30
2019-03-23T15:17:54.305Z,18.20
2019-03-23T15:20:27.184Z,18.10
2019-03-23T15:23:00.386Z,18.10
2019-03-23T15:25:33.408Z,18.00
2019-03-23T15:28:06.327Z,17.70
2019-03-23T15:30:39.232Z,17.60
2019-03-23T15:33:12.104Z,17.60
2019-03-23T15:35:45.666Z,17.60
2019-03-23T15:38:18.725Z,17.50
2019-03-23T15:40:51.764Z,17.40
2019-03-23T15:43:25.085Z,17.50
2019-03-23T15:46:00.431Z,17.40
2019-03-23T15:48:33.585Z,17.30
2019-03-23T15:51:06.584Z,17.20
2019-03-23T15:53:40.292Z,16.90
2019-03-23T15:56:13.492Z,17.20
2019-03-23T15:58:46.413Z,16.50
2019-03-23T16:01:19.905Z,16.80
2019-03-23T16:03:52.864Z,16.50
2019-03-23T16:06:25.892Z,16.30
2019-03-23T16:08:58.845Z,16.80
2019-03-23T16:11:31.925Z,16.60
2019-03-23T16:14:04.804Z,16.70
2019-03-23T16:16:38.072Z,16.20
2019-03-23T16:19:12.965Z,16.20
2019-03-23T16:21:45.844Z,15.70
2019-03-23T16:24:19.665Z,15.50
2019-03-23T16:26:53.084Z,15.70
2019-03-23T16:29:26.176Z,15.60
2019-03-23T16:31:59.084Z,15.40
2019-03-23T16:34:31.985Z,15.50
2019-03-23T16:37:04.944Z,15.30
2019-03-23T16:39:37.925Z,14.80
2019-03-23T16:42:10.914Z,14.90
2019-03-23T16:44:44.096Z,14.60
2019-03-23T16:47:17.053Z,14.60
2019-03-23T16:49:49.804Z,14.30
2019-03-23T16:52:23.372Z,14.40
2019-03-23T16:54:56.406Z,14.10
2019-03-23T16:57:29.304Z,14.00
2019-03-23T17:00:02.156Z,13.60
2019-03-23T17:02:35.124Z,13.40
2019-03-23T17:05:08.045Z,13.20
2019-03-23T17:07:40.966Z,13.00
2019-03-23T17:10:13.964Z,13.30
2019-03-23T17:12:55.139Z,13.00
2019-03-23T17:15:21.612Z,12.70
2019-03-23T17:17:54.725Z,12.60
2019-03-23T17:20:27.866Z,12.70
2019-03-23T17:23:01.085Z,12.60
2019-03-23T17:25:33.994Z,12.50
2019-03-23T17:28:07.006Z,12.50
2019-03-23T17:30:40.394Z,12.40
2019-03-23T17:33:13.306Z,12.20
2019-03-23T17:35:46.624Z,12.10
2019-03-23T17:38:20.046Z,11.90
2019-03-23T17:40:52.892Z,11.80
2019-03-23T17:43:25.792Z,12.00
2019-03-23T17:45:58.684Z,12.20
2019-03-23T17:48:31.645Z,12.20
2019-03-23T17:51:06.001Z,12.20
2019-03-23T17:53:39.224Z,12.20
2019-03-23T17:56:12.313Z,12.10
2019-03-23T17:58:45.726Z,12.20
2019-03-23T18:01:19.866Z,12.10
2019-03-23T18:03:53.326Z,12.00
2019-03-23T18:06:26.314Z,11.90
2019-03-23T18:08:59.225Z,11.80
2019-03-23T18:11:32.425Z,11.80
2019-03-23T18:14:05.485Z,11.90
2019-03-23T18:16:40.024Z,12.00
2019-03-23T18:19:13.005Z,11.80
2019-03-23T18:21:46.593Z,11.90
2019-03-23T18:24:19.546Z,11.80
2019-03-23T18:26:53.405Z,11.90
2019-03-23T18:29:26.369Z,11.70
2019-03-23T18:31:59.504Z,11.40
2019-03-23T18:34:32.347Z,11.70
2019-03-23T18:37:05.580Z,11.50
2019-03-23T18:39:38.485Z,11.40
2019-03-23T18:42:12.904Z,11.30
2019-03-23T18:44:45.765Z,11.30
2019-03-23T18:47:19.445Z,11.30
2019-03-23T18:49:52.365Z,11.40
2019-03-23T18:52:25.384Z,11.40
2019-03-23T18:54:58.653Z,11.40
2019-03-23T18:57:31.724Z,11.40
2019-03-23T19:00:04.973Z,11.30
2019-03-23T19:02:37.943Z,11.20
2019-03-23T19:05:11.365Z,11.30
2019-03-23T19:07:44.633Z,11.10
2019-03-23T19:10:17.407Z,11.20
2019-03-23T19:12:50.275Z,11.20
2019-03-23T19:15:23.296Z,11.30
2019-03-23T19:17:56.427Z,11.20
2019-03-23T19:20:31.249Z,11.20
2019-03-23T19:23:03.987Z,10.90
2019-03-23T19:25:36.967Z,10.40
2019-03-23T19:28:09.718Z,10.30
2019-03-23T19:30:42.548Z,10.30
2019-03-23T19:33:15.350Z,10.30
2019-03-23T19:35:48.319Z,10.30
2019-03-23T19:38:21.188Z,10.50
2019-03-23T19:40:54.166Z,10.60
2019-03-23T19:43:26.946Z,10.60
2019-03-23T19:45:59.948Z,10.60
2019-03-23T19:48:33.487Z,10.20
2019-03-23T19:51:06.522Z,10.40
2019-03-23T19:53:39.712Z,10.30
2019-03-23T19:56:12.666Z,10.20
2019-03-23T19:58:45.579Z,10.20
2019-03-23T20:01:18.577Z,10.40
2019-03-23T20:03:51.567Z,10.40
2019-03-23T20:06:24.909Z,10.50
2019-03-23T20:08:58.206Z,10.10
2019-03-23T20:11:31.086Z,10.10
2019-03-23T20:14:04.106Z,10.10
2019-03-23T20:16:37.166Z,10.00
2019-03-23T20:19:10.171Z,10.00
2019-03-23T20:21:43.030Z,10.10
2019-03-23T20:24:16.061Z,10.30
2019-03-23T20:26:48.973Z,10.30
2019-03-23T20:29:21.808Z,10.30
2019-03-23T20:31:54.628Z,10.10
2019-03-23T20:34:28.942Z,10.10
2019-03-23T20:37:01.813Z,9.90
2019-03-23T20:39:35.067Z,9.90
2019-03-23T20:42:08.004Z,10.00
2019-03-23T20:44:40.869Z,9.80
2019-03-23T20:47:13.984Z,9.80
2019-03-23T20:49:46.804Z,9.80
2019-03-23T20:52:19.604Z,9.90
2019-03-23T20:54:52.453Z,10.10
2019-03-23T20:57:25.393Z,9.90
2019-03-23T20:59:58.587Z,9.80
2019-03-23T21:02:31.873Z,9.80
2019-03-23T21:05:04.884Z,9.80
2019-03-23T21:07:37.792Z,9.50
2019-03-23T21:10:12.245Z,9.50
2019-03-23T21:12:45.833Z,9.40
2019-03-23T21:15:18.885Z,9.70
2019-03-23T21:17:52.151Z,9.60
2019-03-23T21:20:25.352Z,9.50
2019-03-23T21:22:58.385Z,9.50
2019-03-23T21:25:31.524Z,9.40
2019-03-23T21:28:04.453Z,9.40
2019-03-23T21:30:37.393Z,9.40
2019-03-23T21:33:10.332Z,9.50
2019-03-23T21:35:43.504Z,9.50
2019-03-23T21:38:16.706Z,9.60
2019-03-23T21:40:49.633Z,9.60
2019-03-23T21:43:22.585Z,9.50
2019-03-23T21:45:55.844Z,9.30
2019-03-23T21:48:30.488Z,9.00
2019-03-23T21:51:03.385Z,8.90
2019-03-23T21:53:38.764Z,8.90
2019-03-23T21:56:12.144Z,8.80
2019-03-23T21:58:45.545Z,8.90
2019-03-23T22:01:18.514Z,9.00
2019-03-23T22:03:51.428Z,9.10
2019-03-23T22:06:24.565Z,9.00
2019-03-23T22:08:57.364Z,8.90
2019-03-23T22:11:30.847Z,8.90
2019-03-23T22:14:03.592Z,8.80
2019-03-23T22:16:36.784Z,8.80
2019-03-23T22:19:10.165Z,8.90
2019-03-23T22:21:43.369Z,9.20
2019-03-23T22:24:16.253Z,9.00
2019-03-23T22:26:49.145Z,9.20
2019-03-23T22:29:22.123Z,8.80
2019-03-23T22:31:55.044Z,8.70
2019-03-23T22:34:28.344Z,8.60
2019-03-23T22:37:01.545Z,8.50
2019-03-23T22:39:34.404Z,8.60
2019-03-23T22:42:08.005Z,8.80
2019-03-23T22:44:41.107Z,8.60
2019-03-23T22:47:14.205Z,8.40
2019-03-23T22:49:46.984Z,8.40
2019-03-23T22:52:20.255Z,8.50
2019-03-23T22:54:53.664Z,8.60
2019-03-23T22:57:27.064Z,8.80
2019-03-23T22:59:59.964Z,9.20
2019-03-23T23:02:33.204Z,9.10
2019-03-23T23:05:06.812Z,9.20
2019-03-23T23:07:39.771Z,9.10
2019-03-23T23:10:12.805Z,9.10
2019-03-23T23:12:49.049Z,8.90
2019-03-23T23:15:22.144Z,8.70
2019-03-23T23:17:55.152Z,8.70
2019-03-23T23:20:28.224Z,8.60
2019-03-23T23:23:01.404Z,9.00
2019-03-23T23:25:34.585Z,9.00
2019-03-23T23:28:07.985Z,9.20
2019-03-23T23:30:41.244Z,9.00
2019-03-23T23:33:14.004Z,8.90
2019-03-23T23:35:49.286Z,8.80
2019-03-23T23:38:22.364Z,8.90
2019-03-23T23:40:55.645Z,8.90
2019-03-23T23:43:28.927Z,9.00
2019-03-23T23:46:01.905Z,8.80
2019-03-23T23:48:35.604Z,8.90
2019-03-23T23:51:08.508Z,8.90
2019-03-23T23:53:41.644Z,8.70
2019-03-23T23:56:14.632Z,8.70
2019-03-23T23:58:47.400Z,8.90
